sensor_id;sensor_type;location;lat;lon;timestamp;P1;durP1;ratioP1;P2;durP2;ratioP2
56927;SDS011;60850;52.502;13.426;2024-03-08T00:02:16;25.67;;;11.55;;
56927;SDS011;60850;52.502;13.426;2024-03-08T00:04:44;26.20;;;12.38;;
56927;SDS011;60850;52.502;13.426;2024-03-08T00:07:12;29.38;;;12.15;;
56927;SDS011;60850;52.502;13.426;2024-03-08T00:09:39;32.28;;;14.02;;
56927;SDS011;60850;52.502;13.426;2024-03-08T00:12:07;26.85;;;12.43;;
56927;SDS011;60850;52.502;13.426;2024-03-08T00:14:35;28.15;;;12.63;;
56927;SDS011;60850;52.502;13.426;2024-03-08T00:17:03;29.23;;;12.70;;
56927;SDS011;60850;52.502;13.426;2024-03-08T00:19:33;30.85;;;13.32;;
56927;SDS011;60850;52.502;13.426;2024-03-08T00:22:01;31.10;;;12.95;;
56927;SDS011;60850;52.502;13.426;2024-03-08T00:24:28;30.95;;;14.02;;
56927;SDS011;60850;52.502;13.426;2024-03-08T00:26:56;31.75;;;12.63;;
56927;SDS011;60850;52.502;13.426;2024-03-08T00:29:24;35.75;;;12.98;;
56927;SDS011;60850;52.502;13.426;2024-03-08T00:31:51;27.88;;;12.43;;
56927;SDS011;60850;52.502;13.426;2024-03-08T00:34:18;32.03;;;12.32;;
56927;SDS011;60850;52.502;13.426;2024-03-08T00:36:46;33.85;;;14.43;;
56927;SDS011;60850;52.502;13.426;2024-03-08T00:39:14;37.67;;;14.60;;
56927;SDS011;60850;52.502;13.426;2024-03-08T00:41:41;32.70;;;13.80;;
56927;SDS011;60850;52.502;13.426;2024-03-08T00:44:09;32.63;;;14.27;;
56927;SDS011;60850;52.502;13.426;2024-03-08T00:46:37;30.90;;;13.18;;
56927;SDS011;60850;52.502;13.426;2024-03-08T00:49:04;31.92;;;14.00;;
56927;SDS011;60850;52.502;13.426;2024-03-08T00:51:32;32.92;;;13.50;;
56927;SDS011;60850;52.502;13.426;2024-03-08T00:54:00;29.33;;;13.52;;
56927;SDS011;60850;52.502;13.426;2024-03-08T00:56:27;30.35;;;13.85;;
56927;SDS011;60850;52.502;13.426;2024-03-08T00:58:54;34.28;;;14.45;;
56927;SDS011;60850;52.502;13.426;2024-03-08T01:01:21;28.95;;;13.32;;
56927;SDS011;60850;52.502;13.426;2024-03-08T01:03:50;30.63;;;13.13;;
56927;SDS011;60850;52.502;13.426;2024-03-08T01:06:17;29.80;;;13.85;;
56927;SDS011;60850;52.502;13.426;2024-03-08T01:08:45;32.17;;;12.48;;
56927;SDS011;60850;52.502;13.426;2024-03-08T01:11:14;32.75;;;14.38;;
56927;SDS011;60850;52.502;13.426;2024-03-08T01:13:40;33.90;;;13.60;;
56927;SDS011;60850;52.502;13.426;2024-03-08T01:16:08;31.80;;;13.93;;
56927;SDS011;60850;52.502;13.426;2024-03-08T01:18:35;33.67;;;14.02;;
56927;SDS011;60850;52.502;13.426;2024-03-08T01:21:03;30.38;;;13.75;;
56927;SDS011;60850;52.502;13.426;2024-03-08T01:23:30;34.05;;;12.70;;
56927;SDS011;60850;52.502;13.426;2024-03-08T01:25:57;27.90;;;12.23;;
56927;SDS011;60850;52.502;13.426;2024-03-08T01:28:25;28.38;;;12.88;;
56927;SDS011;60850;52.502;13.426;2024-03-08T01:30:53;32.22;;;12.73;;
56927;SDS011;60850;52.502;13.426;2024-03-08T01:33:22;29.50;;;13.35;;
56927;SDS011;60850;52.502;13.426;2024-03-08T01:35:51;35.67;;;13.65;;
56927;SDS011;60850;52.502;13.426;2024-03-08T01:38:18;33.38;;;13.60;;
56927;SDS011;60850;52.502;13.426;2024-03-08T01:40:46;30.08;;;12.23;;
56927;SDS011;60850;52.502;13.426;2024-03-08T01:43:19;29.38;;;12.63;;
56927;SDS011;60850;52.502;13.426;2024-03-08T01:45:49;31.52;;;13.73;;
56927;SDS011;60850;52.502;13.426;2024-03-08T01:48:15;31.60;;;12.93;;
56927;SDS011;60850;52.502;13.426;2024-03-08T01:50:44;31.05;;;13.88;;
56927;SDS011;60850;52.502;13.426;2024-03-08T01:53:12;29.48;;;13.13;;
56927;SDS011;60850;52.502;13.426;2024-03-08T01:55:40;34.60;;;13.13;;
56927;SDS011;60850;52.502;13.426;2024-03-08T01:58:09;30.65;;;13.50;;
56927;SDS011;60850;52.502;13.426;2024-03-08T02:00:37;31.23;;;13.80;;
56927;SDS011;60850;52.502;13.426;2024-03-08T02:03:08;30.40;;;13.32;;
56927;SDS011;60850;52.502;13.426;2024-03-08T02:05:36;31.58;;;13.38;;
56927;SDS011;60850;52.502;13.426;2024-03-08T02:08:03;28.30;;;12.20;;
56927;SDS011;60850;52.502;13.426;2024-03-08T02:10:33;28.10;;;13.07;;
56927;SDS011;60850;52.502;13.426;2024-03-08T02:13:01;30.90;;;13.80;;
56927;SDS011;60850;52.502;13.426;2024-03-08T02:18:18;30.38;;;13.45;;
56927;SDS011;60850;52.502;13.426;2024-03-08T02:20:47;32.58;;;12.57;;
56927;SDS011;60850;52.502;13.426;2024-03-08T02:23:14;30.17;;;13.40;;
56927;SDS011;60850;52.502;13.426;2024-03-08T02:25:41;32.10;;;12.75;;
56927;SDS011;60850;52.502;13.426;2024-03-08T02:28:09;28.63;;;13.13;;
56927;SDS011;60850;52.502;13.426;2024-03-08T02:30:37;29.67;;;12.88;;
56927;SDS011;60850;52.502;13.426;2024-03-08T02:33:04;29.02;;;13.07;;
56927;SDS011;60850;52.502;13.426;2024-03-08T02:35:31;31.23;;;13.90;;
56927;SDS011;60850;52.502;13.426;2024-03-08T02:37:59;30.85;;;13.52;;
56927;SDS011;60850;52.502;13.426;2024-03-08T02:40:27;35.53;;;13.98;;
56927;SDS011;60850;52.502;13.426;2024-03-08T02:42:53;35.97;;;13.00;;
56927;SDS011;60850;52.502;13.426;2024-03-08T02:45:21;31.90;;;13.27;;
56927;SDS011;60850;52.502;13.426;2024-03-08T02:47:48;35.50;;;14.65;;
56927;SDS011;60850;52.502;13.426;2024-03-08T02:50:16;31.55;;;13.73;;
56927;SDS011;60850;52.502;13.426;2024-03-08T02:52:43;34.33;;;14.02;;
56927;SDS011;60850;52.502;13.426;2024-03-08T02:55:13;31.27;;;13.07;;
56927;SDS011;60850;52.502;13.426;2024-03-08T02:57:41;29.90;;;11.55;;
56927;SDS011;60850;52.502;13.426;2024-03-08T03:00:09;31.83;;;13.13;;
56927;SDS011;60850;52.502;13.426;2024-03-08T03:02:38;31.05;;;13.80;;
56927;SDS011;60850;52.502;13.426;2024-03-08T03:05:05;31.70;;;13.85;;
56927;SDS011;60850;52.502;13.426;2024-03-08T03:07:35;36.67;;;13.68;;
56927;SDS011;60850;52.502;13.426;2024-03-08T03:10:03;29.95;;;13.65;;
56927;SDS011;60850;52.502;13.426;2024-03-08T03:12:32;37.97;;;14.88;;
56927;SDS011;60850;52.502;13.426;2024-03-08T03:15:00;31.63;;;13.93;;
56927;SDS011;60850;52.502;13.426;2024-03-08T03:17:27;30.50;;;14.25;;
56927;SDS011;60850;52.502;13.426;2024-03-08T03:19:54;35.60;;;13.60;;
56927;SDS011;60850;52.502;13.426;2024-03-08T03:22:21;32.55;;;13.65;;
56927;SDS011;60850;52.502;13.426;2024-03-08T03:24:48;33.28;;;13.95;;
56927;SDS011;60850;52.502;13.426;2024-03-08T03:27:16;33.00;;;13.48;;
56927;SDS011;60850;52.502;13.426;2024-03-08T03:29:47;32.22;;;13.45;;
56927;SDS011;60850;52.502;13.426;2024-03-08T03:32:14;35.30;;;14.98;;
56927;SDS011;60850;52.502;13.426;2024-03-08T03:34:42;38.10;;;14.95;;
56927;SDS011;60850;52.502;13.426;2024-03-08T03:37:09;37.90;;;14.77;;
56927;SDS011;60850;52.502;13.426;2024-03-08T03:39:38;33.50;;;14.73;;
56927;SDS011;60850;52.502;13.426;2024-03-08T03:42:13;32.72;;;14.27;;
56927;SDS011;60850;52.502;13.426;2024-03-08T03:44:42;34.08;;;14.40;;
56927;SDS011;60850;52.502;13.426;2024-03-08T03:47:11;35.47;;;16.00;;
56927;SDS011;60850;52.502;13.426;2024-03-08T03:49:40;29.80;;;12.98;;
56927;SDS011;60850;52.502;13.426;2024-03-08T03:52:07;37.35;;;15.32;;
56927;SDS011;60850;52.502;13.426;2024-03-08T03:54:34;46.03;;;17.13;;
56927;SDS011;60850;52.502;13.426;2024-03-08T03:57:01;32.25;;;14.70;;
56927;SDS011;60850;52.502;13.426;2024-03-08T03:59:28;32.80;;;14.18;;
56927;SDS011;60850;52.502;13.426;2024-03-08T04:01:55;37.17;;;15.27;;
56927;SDS011;60850;52.502;13.426;2024-03-08T04:04:24;33.53;;;13.98;;
56927;SDS011;60850;52.502;13.426;2024-03-08T04:06:51;39.20;;;15.90;;
56927;SDS011;60850;52.502;13.426;2024-03-08T04:09:18;35.83;;;15.20;;
56927;SDS011;60850;52.502;13.426;2024-03-08T04:11:47;37.00;;;15.48;;
56927;SDS011;60850;52.502;13.426;2024-03-08T04:14:15;34.05;;;15.45;;
56927;SDS011;60850;52.502;13.426;2024-03-08T04:16:42;36.83;;;15.57;;
56927;SDS011;60850;52.502;13.426;2024-03-08T04:19:09;47.53;;;19.90;;
56927;SDS011;60850;52.502;13.426;2024-03-08T04:21:37;39.80;;;16.30;;
56927;SDS011;60850;52.502;13.426;2024-03-08T04:24:05;38.92;;;15.27;;
56927;SDS011;60850;52.502;13.426;2024-03-08T04:26:32;36.38;;;15.20;;
56927;SDS011;60850;52.502;13.426;2024-03-08T04:29:00;38.20;;;15.07;;
56927;SDS011;60850;52.502;13.426;2024-03-08T04:31:26;43.92;;;16.33;;
56927;SDS011;60850;52.502;13.426;2024-03-08T04:33:54;33.60;;;15.23;;
56927;SDS011;60850;52.502;13.426;2024-03-08T04:36:20;39.55;;;15.73;;
56927;SDS011;60850;52.502;13.426;2024-03-08T04:38:50;41.35;;;16.42;;
56927;SDS011;60850;52.502;13.426;2024-03-08T04:41:17;39.47;;;16.65;;
56927;SDS011;60850;52.502;13.426;2024-03-08T04:43:45;37.30;;;16.55;;
56927;SDS011;60850;52.502;13.426;2024-03-08T04:46:12;37.70;;;15.27;;
56927;SDS011;60850;52.502;13.426;2024-03-08T04:48:39;37.75;;;15.60;;
56927;SDS011;60850;52.502;13.426;2024-03-08T04:51:08;40.53;;;16.40;;
56927;SDS011;60850;52.502;13.426;2024-03-08T04:53:36;36.33;;;15.32;;
56927;SDS011;60850;52.502;13.426;2024-03-08T04:56:05;45.25;;;17.15;;
56927;SDS011;60850;52.502;13.426;2024-03-08T04:58:33;39.50;;;16.95;;
56927;SDS011;60850;52.502;13.426;2024-03-08T05:01:01;44.15;;;17.40;;
56927;SDS011;60850;52.502;13.426;2024-03-08T05:03:29;39.78;;;16.05;;
56927;SDS011;60850;52.502;13.426;2024-03-08T05:05:56;43.10;;;15.13;;
56927;SDS011;60850;52.502;13.426;2024-03-08T05:08:23;39.05;;;17.73;;
56927;SDS011;60850;52.502;13.426;2024-03-08T05:10:51;39.55;;;15.73;;
56927;SDS011;60850;52.502;13.426;2024-03-08T05:13:19;41.45;;;17.17;;
56927;SDS011;60850;52.502;13.426;2024-03-08T05:15:48;37.22;;;17.13;;
56927;SDS011;60850;52.502;13.426;2024-03-08T05:18:15;48.38;;;18.90;;
56927;SDS011;60850;52.502;13.426;2024-03-08T05:20:42;45.47;;;17.05;;
56927;SDS011;60850;52.502;13.426;2024-03-08T05:23:09;40.78;;;17.40;;
56927;SDS011;60850;52.502;13.426;2024-03-08T05:25:36;44.88;;;18.27;;
56927;SDS011;60850;52.502;13.426;2024-03-08T05:28:04;43.85;;;17.23;;
56927;SDS011;60850;52.502;13.426;2024-03-08T05:30:32;38.47;;;17.08;;
56927;SDS011;60850;52.502;13.426;2024-03-08T05:33:01;39.95;;;17.70;;
56927;SDS011;60850;52.502;13.426;2024-03-08T05:35:29;40.80;;;15.82;;
56927;SDS011;60850;52.502;13.426;2024-03-08T05:37:56;41.47;;;17.65;;
56927;SDS011;60850;52.502;13.426;2024-03-08T05:40:23;41.63;;;16.65;;
56927;SDS011;60850;52.502;13.426;2024-03-08T05:42:50;45.45;;;17.42;;
56927;SDS011;60850;52.502;13.426;2024-03-08T05:45:17;42.47;;;18.05;;
56927;SDS011;60850;52.502;13.426;2024-03-08T05:47:45;36.83;;;16.70;;
56927;SDS011;60850;52.502;13.426;2024-03-08T05:50:12;45.75;;;18.95;;
56927;SDS011;60850;52.502;13.426;2024-03-08T05:52:41;43.58;;;17.70;;
56927;SDS011;60850;52.502;13.426;2024-03-08T05:55:08;39.53;;;16.67;;
56927;SDS011;60850;52.502;13.426;2024-03-08T05:57:36;43.60;;;18.45;;
56927;SDS011;60850;52.502;13.426;2024-03-08T06:00:05;37.78;;;17.13;;
56927;SDS011;60850;52.502;13.426;2024-03-08T06:02:33;42.47;;;17.83;;
56927;SDS011;60850;52.502;13.426;2024-03-08T06:05:05;42.92;;;18.10;;
56927;SDS011;60850;52.502;13.426;2024-03-08T06:07:34;41.30;;;18.30;;
56927;SDS011;60850;52.502;13.426;2024-03-08T06:10:01;47.80;;;19.35;;
56927;SDS011;60850;52.502;13.426;2024-03-08T06:12:30;41.08;;;18.08;;
56927;SDS011;60850;52.502;13.426;2024-03-08T06:14:58;38.63;;;16.70;;
56927;SDS011;60850;52.502;13.426;2024-03-08T06:17:26;41.00;;;16.48;;
56927;SDS011;60850;52.502;13.426;2024-03-08T06:19:53;39.03;;;17.92;;
56927;SDS011;60850;52.502;13.426;2024-03-08T06:22:21;40.00;;;18.42;;
56927;SDS011;60850;52.502;13.426;2024-03-08T06:24:48;43.58;;;19.40;;
56927;SDS011;60850;52.502;13.426;2024-03-08T06:27:17;40.55;;;16.80;;
56927;SDS011;60850;52.502;13.426;2024-03-08T06:29:43;40.33;;;17.42;;
56927;SDS011;60850;52.502;13.426;2024-03-08T06:32:11;42.70;;;18.65;;
56927;SDS011;60850;52.502;13.426;2024-03-08T06:34:40;40.08;;;17.05;;
56927;SDS011;60850;52.502;13.426;2024-03-08T06:37:07;41.58;;;17.60;;
56927;SDS011;60850;52.502;13.426;2024-03-08T06:39:35;39.35;;;17.60;;
56927;SDS011;60850;52.502;13.426;2024-03-08T06:42:02;41.60;;;17.38;;
56927;SDS011;60850;52.502;13.426;2024-03-08T06:44:30;39.63;;;18.23;;
56927;SDS011;60850;52.502;13.426;2024-03-08T06:46:58;40.15;;;18.08;;
56927;SDS011;60850;52.502;13.426;2024-03-08T06:49:25;35.63;;;17.63;;
56927;SDS011;60850;52.502;13.426;2024-03-08T06:51:52;45.42;;;19.25;;
56927;SDS011;60850;52.502;13.426;2024-03-08T06:54:19;41.88;;;18.38;;
56927;SDS011;60850;52.502;13.426;2024-03-08T06:56:48;40.65;;;18.30;;
56927;SDS011;60850;52.502;13.426;2024-03-08T06:59:15;36.97;;;17.02;;
56927;SDS011;60850;52.502;13.426;2024-03-08T07:01:43;36.22;;;17.25;;
56927;SDS011;60850;52.502;13.426;2024-03-08T07:04:12;37.00;;;16.90;;
56927;SDS011;60850;52.502;13.426;2024-03-08T07:06:39;37.15;;;17.17;;
56927;SDS011;60850;52.502;13.426;2024-03-08T07:09:06;40.20;;;17.65;;
56927;SDS011;60850;52.502;13.426;2024-03-08T07:11:34;37.00;;;19.13;;
56927;SDS011;60850;52.502;13.426;2024-03-08T07:14:03;36.53;;;17.40;;
56927;SDS011;60850;52.502;13.426;2024-03-08T07:16:32;43.97;;;18.40;;
56927;SDS011;60850;52.502;13.426;2024-03-08T07:18:59;40.65;;;18.02;;
56927;SDS011;60850;52.502;13.426;2024-03-08T07:21:26;47.60;;;19.33;;
56927;SDS011;60850;52.502;13.426;2024-03-08T07:23:54;38.10;;;16.92;;
56927;SDS011;60850;52.502;13.426;2024-03-08T07:26:39;34.95;;;16.10;;
56927;SDS011;60850;52.502;13.426;2024-03-08T07:29:08;35.80;;;16.55;;
56927;SDS011;60850;52.502;13.426;2024-03-08T07:31:35;38.33;;;17.85;;
56927;SDS011;60850;52.502;13.426;2024-03-08T07:34:16;39.20;;;17.10;;
56927;SDS011;60850;52.502;13.426;2024-03-08T07:36:43;37.25;;;15.35;;
56927;SDS011;60850;52.502;13.426;2024-03-08T07:39:10;33.92;;;15.75;;
56927;SDS011;60850;52.502;13.426;2024-03-08T07:41:39;35.95;;;16.52;;
56927;SDS011;60850;52.502;13.426;2024-03-08T07:44:07;40.08;;;16.60;;
56927;SDS011;60850;52.502;13.426;2024-03-08T07:46:35;37.05;;;16.33;;
56927;SDS011;60850;52.502;13.426;2024-03-08T07:49:02;33.80;;;15.18;;
56927;SDS011;60850;52.502;13.426;2024-03-08T07:51:29;31.65;;;15.73;;
56927;SDS011;60850;52.502;13.426;2024-03-08T07:53:56;34.25;;;15.57;;
56927;SDS011;60850;52.502;13.426;2024-03-08T07:56:24;32.88;;;18.13;;
56927;SDS011;60850;52.502;13.426;2024-03-08T07:58:50;33.67;;;15.18;;
56927;SDS011;60850;52.502;13.426;2024-03-08T08:01:20;33.40;;;15.88;;
56927;SDS011;60850;52.502;13.426;2024-03-08T08:03:47;32.35;;;15.82;;
56927;SDS011;60850;52.502;13.426;2024-03-08T08:06:14;32.10;;;15.35;;
56927;SDS011;60850;52.502;13.426;2024-03-08T08:08:42;34.42;;;16.23;;
56927;SDS011;60850;52.502;13.426;2024-03-08T08:11:10;37.00;;;16.90;;
56927;SDS011;60850;52.502;13.426;2024-03-08T08:13:37;31.45;;;16.55;;
56927;SDS011;60850;52.502;13.426;2024-03-08T08:16:05;31.45;;;14.85;;
56927;SDS011;60850;52.502;13.426;2024-03-08T08:18:34;32.80;;;16.65;;
56927;SDS011;60850;52.502;13.426;2024-03-08T08:21:02;34.58;;;16.75;;
56927;SDS011;60850;52.502;13.426;2024-03-08T08:23:31;32.80;;;16.98;;
56927;SDS011;60850;52.502;13.426;2024-03-08T08:25:58;30.83;;;15.70;;
56927;SDS011;60850;52.502;13.426;2024-03-08T08:28:26;27.98;;;14.27;;
56927;SDS011;60850;52.502;13.426;2024-03-08T08:30:54;30.27;;;14.90;;
56927;SDS011;60850;52.502;13.426;2024-03-08T08:33:20;33.22;;;16.92;;
56927;SDS011;60850;52.502;13.426;2024-03-08T08:35:49;32.33;;;15.27;;
56927;SDS011;60850;52.502;13.426;2024-03-08T08:38:19;29.48;;;14.82;;
56927;SDS011;60850;52.502;13.426;2024-03-08T08:40:46;31.55;;;14.88;;
56927;SDS011;60850;52.502;13.426;2024-03-08T08:43:13;27.67;;;15.48;;
56927;SDS011;60850;52.502;13.426;2024-03-08T08:45:41;31.20;;;15.13;;
56927;SDS011;60850;52.502;13.426;2024-03-08T08:48:08;26.20;;;13.23;;
56927;SDS011;60850;52.502;13.426;2024-03-08T08:50:36;28.73;;;15.27;;
56927;SDS011;60850;52.502;13.426;2024-03-08T08:53:06;29.27;;;15.57;;
56927;SDS011;60850;52.502;13.426;2024-03-08T08:55:33;29.17;;;15.60;;
56927;SDS011;60850;52.502;13.426;2024-03-08T08:58:01;31.63;;;16.40;;
56927;SDS011;60850;52.502;13.426;2024-03-08T09:00:29;30.60;;;16.30;;
56927;SDS011;60850;52.502;13.426;2024-03-08T09:02:58;28.63;;;16.02;;
56927;SDS011;60850;52.502;13.426;2024-03-08T09:05:25;29.63;;;16.35;;
56927;SDS011;60850;52.502;13.426;2024-03-08T09:07:52;29.05;;;16.15;;
56927;SDS011;60850;52.502;13.426;2024-03-08T09:10:21;27.83;;;15.57;;
56927;SDS011;60850;52.502;13.426;2024-03-08T09:12:48;25.02;;;14.13;;
56927;SDS011;60850;52.502;13.426;2024-03-08T09:15:15;28.30;;;16.17;;
56927;SDS011;60850;52.502;13.426;2024-03-08T09:17:45;30.15;;;16.25;;
56927;SDS011;60850;52.502;13.426;2024-03-08T09:20:14;29.20;;;15.98;;
56927;SDS011;60850;52.502;13.426;2024-03-08T09:22:43;28.67;;;16.38;;
56927;SDS011;60850;52.502;13.426;2024-03-08T09:25:10;28.42;;;13.95;;
56927;SDS011;60850;52.502;13.426;2024-03-08T09:27:38;30.55;;;16.38;;
56927;SDS011;60850;52.502;13.426;2024-03-08T09:30:07;27.75;;;16.23;;
56927;SDS011;60850;52.502;13.426;2024-03-08T09:32:34;31.10;;;16.40;;
56927;SDS011;60850;52.502;13.426;2024-03-08T09:35:02;28.02;;;14.95;;
56927;SDS011;60850;52.502;13.426;2024-03-08T09:37:32;29.70;;;16.02;;
56927;SDS011;60850;52.502;13.426;2024-03-08T09:40:00;31.45;;;15.82;;
56927;SDS011;60850;52.502;13.426;2024-03-08T09:42:29;25.58;;;15.18;;
56927;SDS011;60850;52.502;13.426;2024-03-08T09:44:58;29.00;;;14.48;;
56927;SDS011;60850;52.502;13.426;2024-03-08T09:47:25;33.42;;;15.27;;
56927;SDS011;60850;52.502;13.426;2024-03-08T09:49:59;28.23;;;14.10;;
56927;SDS011;60850;52.502;13.426;2024-03-08T09:52:26;30.75;;;14.75;;
56927;SDS011;60850;52.502;13.426;2024-03-08T09:54:56;25.77;;;12.88;;
56927;SDS011;60850;52.502;13.426;2024-03-08T09:57:23;29.10;;;14.98;;
56927;SDS011;60850;52.502;13.426;2024-03-08T09:59:51;27.60;;;13.90;;
56927;SDS011;60850;52.502;13.426;2024-03-08T10:02:20;29.30;;;14.18;;
56927;SDS011;60850;52.502;13.426;2024-03-08T10:04:47;29.65;;;14.52;;
56927;SDS011;60850;52.502;13.426;2024-03-08T10:07:14;29.35;;;15.23;;
56927;SDS011;60850;52.502;13.426;2024-03-08T10:09:41;26.95;;;12.60;;
56927;SDS011;60850;52.502;13.426;2024-03-08T10:12:12;28.10;;;14.02;;
56927;SDS011;60850;52.502;13.426;2024-03-08T10:14:40;32.72;;;15.02;;
56927;SDS011;60850;52.502;13.426;2024-03-08T10:17:08;25.95;;;13.18;;
56927;SDS011;60850;52.502;13.426;2024-03-08T10:19:37;26.45;;;13.05;;
56927;SDS011;60850;52.502;13.426;2024-03-08T10:22:04;28.90;;;13.80;;
56927;SDS011;60850;52.502;13.426;2024-03-08T10:24:32;31.08;;;14.13;;
56927;SDS011;60850;52.502;13.426;2024-03-08T10:27:00;27.13;;;13.23;;
56927;SDS011;60850;52.502;13.426;2024-03-08T10:29:30;32.92;;;14.63;;
56927;SDS011;60850;52.502;13.426;2024-03-08T10:31:58;28.65;;;12.30;;
56927;SDS011;60850;52.502;13.426;2024-03-08T10:34:26;28.58;;;13.40;;
56927;SDS011;60850;52.502;13.426;2024-03-08T10:36:57;27.20;;;13.10;;
56927;SDS011;60850;52.502;13.426;2024-03-08T10:39:31;30.02;;;12.85;;
56927;SDS011;60850;52.502;13.426;2024-03-08T10:42:02;24.35;;;12.75;;
56927;SDS011;60850;52.502;13.426;2024-03-08T10:44:40;27.13;;;12.82;;
56927;SDS011;60850;52.502;13.426;2024-03-08T10:47:18;24.15;;;12.48;;
56927;SDS011;60850;52.502;13.426;2024-03-08T10:49:51;22.27;;;11.00;;
56927;SDS011;60850;52.502;13.426;2024-03-08T10:52:22;25.52;;;12.57;;
56927;SDS011;60850;52.502;13.426;2024-03-08T10:54:50;27.90;;;12.38;;
56927;SDS011;60850;52.502;13.426;2024-03-08T10:57:21;23.33;;;12.32;;
56927;SDS011;60850;52.502;13.426;2024-03-08T10:59:49;24.63;;;11.88;;
56927;SDS011;60850;52.502;13.426;2024-03-08T11:02:17;24.08;;;11.68;;
56927;SDS011;60850;52.502;13.426;2024-03-08T11:04:46;25.17;;;12.30;;
56927;SDS011;60850;52.502;13.426;2024-03-08T11:07:14;25.05;;;12.07;;
56927;SDS011;60850;52.502;13.426;2024-03-08T11:09:45;25.05;;;11.55;;
56927;SDS011;60850;52.502;13.426;2024-03-08T11:12:24;28.40;;;13.35;;
56927;SDS011;60850;52.502;13.426;2024-03-08T11:14:55;26.10;;;11.65;;
56927;SDS011;60850;52.502;13.426;2024-03-08T11:17:26;22.02;;;11.95;;
56927;SDS011;60850;52.502;13.426;2024-03-08T11:20:10;26.30;;;11.52;;
56927;SDS011;60850;52.502;13.426;2024-03-08T11:22:42;21.88;;;10.05;;
56927;SDS011;60850;52.502;13.426;2024-03-08T11:25:32;23.40;;;11.65;;
56927;SDS011;60850;52.502;13.426;2024-03-08T11:28:08;23.42;;;11.32;;
56927;SDS011;60850;52.502;13.426;2024-03-08T11:30:42;25.65;;;11.52;;
56927;SDS011;60850;52.502;13.426;2024-03-08T11:33:11;23.83;;;12.00;;
56927;SDS011;60850;52.502;13.426;2024-03-08T11:35:39;26.70;;;11.93;;
56927;SDS011;60850;52.502;13.426;2024-03-08T11:38:07;25.35;;;12.15;;
56927;SDS011;60850;52.502;13.426;2024-03-08T11:40:36;28.25;;;12.55;;
56927;SDS011;60850;52.502;13.426;2024-03-08T11:43:05;23.33;;;11.20;;
56927;SDS011;60850;52.502;13.426;2024-03-08T11:45:34;22.05;;;10.95;;
56927;SDS011;60850;52.502;13.426;2024-03-08T11:48:02;22.48;;;11.05;;
56927;SDS011;60850;52.502;13.426;2024-03-08T11:50:30;23.73;;;10.93;;
56927;SDS011;60850;52.502;13.426;2024-03-08T11:53:02;23.52;;;11.55;;
56927;SDS011;60850;52.502;13.426;2024-03-08T11:55:30;25.52;;;11.35;;
56927;SDS011;60850;52.502;13.426;2024-03-08T11:58:05;26.27;;;10.95;;
56927;SDS011;60850;52.502;13.426;2024-03-08T12:00:33;27.52;;;12.30;;
56927;SDS011;60850;52.502;13.426;2024-03-08T12:03:04;24.52;;;11.77;;
56927;SDS011;60850;52.502;13.426;2024-03-08T12:05:33;22.33;;;10.48;;
56927;SDS011;60850;52.502;13.426;2024-03-08T12:08:00;28.63;;;11.60;;
56927;SDS011;60850;52.502;13.426;2024-03-08T12:10:28;24.50;;;10.82;;
56927;SDS011;60850;52.502;13.426;2024-03-08T12:12:57;25.95;;;12.00;;
56927;SDS011;60850;52.502;13.426;2024-03-08T12:15:28;24.70;;;11.57;;
56927;SDS011;60850;52.502;13.426;2024-03-08T12:17:58;25.30;;;11.90;;
56927;SDS011;60850;52.502;13.426;2024-03-08T12:20:26;24.90;;;11.93;;
56927;SDS011;60850;52.502;13.426;2024-03-08T12:22:55;25.85;;;10.88;;
56927;SDS011;60850;52.502;13.426;2024-03-08T12:25:25;26.23;;;12.75;;
56927;SDS011;60850;52.502;13.426;2024-03-08T12:27:54;25.50;;;12.25;;
56927;SDS011;60850;52.502;13.426;2024-03-08T12:30:23;22.75;;;12.25;;
56927;SDS011;60850;52.502;13.426;2024-03-08T12:32:54;27.15;;;11.45;;
56927;SDS011;60850;52.502;13.426;2024-03-08T12:35:23;24.00;;;13.20;;
56927;SDS011;60850;52.502;13.426;2024-03-08T12:37:52;25.58;;;11.77;;
56927;SDS011;60850;52.502;13.426;2024-03-08T12:40:24;20.80;;;11.02;;
56927;SDS011;60850;52.502;13.426;2024-03-08T12:42:52;27.40;;;12.65;;
56927;SDS011;60850;52.502;13.426;2024-03-08T12:45:20;24.83;;;12.10;;
56927;SDS011;60850;52.502;13.426;2024-03-08T12:47:49;26.33;;;12.50;;
56927;SDS011;60850;52.502;13.426;2024-03-08T12:50:18;21.83;;;9.90;;
56927;SDS011;60850;52.502;13.426;2024-03-08T12:52:45;21.85;;;11.85;;
56927;SDS011;60850;52.502;13.426;2024-03-08T12:55:12;22.30;;;11.75;;
56927;SDS011;60850;52.502;13.426;2024-03-08T12:57:41;21.90;;;10.45;;
56927;SDS011;60850;52.502;13.426;2024-03-08T13:00:09;23.58;;;11.55;;
56927;SDS011;60850;52.502;13.426;2024-03-08T13:02:45;22.92;;;11.02;;
56927;SDS011;60850;52.502;13.426;2024-03-08T13:05:12;21.95;;;11.50;;
56927;SDS011;60850;52.502;13.426;2024-03-08T13:07:42;23.38;;;11.63;;
56927;SDS011;60850;52.502;13.426;2024-03-08T13:10:11;22.73;;;11.48;;
56927;SDS011;60850;52.502;13.426;2024-03-08T13:12:40;24.30;;;12.32;;
56927;SDS011;60850;52.502;13.426;2024-03-08T13:15:07;20.15;;;10.82;;
56927;SDS011;60850;52.502;13.426;2024-03-08T13:17:37;24.75;;;11.43;;
56927;SDS011;60850;52.502;13.426;2024-03-08T13:20:06;22.05;;;10.90;;
56927;SDS011;60850;52.502;13.426;2024-03-08T13:22:34;23.63;;;10.73;;
56927;SDS011;60850;52.502;13.426;2024-03-08T13:25:03;21.05;;;10.45;;
56927;SDS011;60850;52.502;13.426;2024-03-08T13:27:31;26.17;;;11.30;;
56927;SDS011;60850;52.502;13.426;2024-03-08T13:29:58;22.67;;;10.95;;
56927;SDS011;60850;52.502;13.426;2024-03-08T13:32:26;19.75;;;10.73;;
56927;SDS011;60850;52.502;13.426;2024-03-08T13:34:53;22.00;;;10.38;;
56927;SDS011;60850;52.502;13.426;2024-03-08T13:37:20;20.92;;;11.02;;
56927;SDS011;60850;52.502;13.426;2024-03-08T13:39:48;22.75;;;10.27;;
56927;SDS011;60850;52.502;13.426;2024-03-08T13:42:16;19.35;;;10.18;;
56927;SDS011;60850;52.502;13.426;2024-03-08T13:44:44;21.20;;;10.93;;
56927;SDS011;60850;52.502;13.426;2024-03-08T13:47:12;20.50;;;9.75;;
56927;SDS011;60850;52.502;13.426;2024-03-08T13:49:40;21.63;;;11.85;;
56927;SDS011;60850;52.502;13.426;2024-03-08T13:52:09;16.17;;;9.52;;
56927;SDS011;60850;52.502;13.426;2024-03-08T13:54:38;21.15;;;10.68;;
56927;SDS011;60850;52.502;13.426;2024-03-08T13:57:05;21.08;;;10.82;;
56927;SDS011;60850;52.502;13.426;2024-03-08T13:59:34;20.58;;;10.10;;
56927;SDS011;60850;52.502;13.426;2024-03-08T14:02:02;19.05;;;9.75;;
56927;SDS011;60850;52.502;13.426;2024-03-08T14:04:30;19.33;;;10.45;;
56927;SDS011;60850;52.502;13.426;2024-03-08T14:06:57;19.45;;;9.05;;
56927;SDS011;60850;52.502;13.426;2024-03-08T14:09:29;26.00;;;10.00;;
56927;SDS011;60850;52.502;13.426;2024-03-08T14:11:56;22.70;;;9.77;;
56927;SDS011;60850;52.502;13.426;2024-03-08T14:14:24;21.85;;;9.73;;
56927;SDS011;60850;52.502;13.426;2024-03-08T14:16:52;17.58;;;8.90;;
56927;SDS011;60850;52.502;13.426;2024-03-08T14:19:21;22.52;;;11.13;;